sensor_id;sensor_type;location;lat;lon;timestamp;P1;durP1;ratioP1;P2;durP2;ratioP2
21000;SDS011;10658;50.920;12.238;2023-07-29T00:02:47;2.97;;;1.80;;
21000;SDS011;10658;50.920;12.238;2023-07-29T00:06:48;2.50;;;1.33;;
21000;SDS011;10658;50.920;12.238;2023-07-29T00:10:49;2.35;;;1.30;;
21000;SDS011;10658;50.920;12.238;2023-07-29T00:14:49;1.45;;;1.35;;
21000;SDS011;10658;50.920;12.238;2023-07-29T00:18:50;1.23;;;1.13;;
21000;SDS011;10658;50.920;12.238;2023-07-29T00:22:51;3.60;;;1.92;;
21000;SDS011;10658;50.920;12.238;2023-07-29T00:26:55;1.35;;;1.10;;
21000;SDS011;10658;50.920;12.238;2023-07-29T00:30:55;2.05;;;1.10;;
21000;SDS011;10658;50.920;12.238;2023-07-29T00:34:56;1.08;;;1.00;;
21000;SDS011;10658;50.920;12.238;2023-07-29T00:38:57;1.20;;;1.10;;
21000;SDS011;10658;50.920;12.238;2023-07-29T00:42:58;2.42;;;1.38;;
21000;SDS011;10658;50.920;12.238;2023-07-29T00:46:58;1.33;;;1.23;;
21000;SDS011;10658;50.920;12.238;2023-07-29T00:51:02;2.67;;;1.00;;
21000;SDS011;10658;50.920;12.238;2023-07-29T00:55:04;1.42;;;0.95;;
21000;SDS011;10658;50.920;12.238;2023-07-29T00:59:05;1.27;;;0.90;;
21000;SDS011;10658;50.920;12.238;2023-07-29T01:03:06;2.97;;;0.95;;
21000;SDS011;10658;50.920;12.238;2023-07-29T01:07:20;1.60;;;1.20;;
21000;SDS011;10658;50.920;12.238;2023-07-29T01:11:33;2.88;;;1.00;;
21000;SDS011;10658;50.920;12.238;2023-07-29T01:15:59;2.25;;;1.00;;
21000;SDS011;10658;50.920;12.238;2023-07-29T01:20:08;1.02;;;0.90;;
21000;SDS011;10658;50.920;12.238;2023-07-29T01:24:12;0.98;;;0.80;;
21000;SDS011;10658;50.920;12.238;2023-07-29T01:28:13;1.00;;;1.00;;
21000;SDS011;10658;50.920;12.238;2023-07-29T01:32:17;1.67;;;0.85;;
21000;SDS011;10658;50.920;12.238;2023-07-29T01:36:25;2.15;;;0.88;;
21000;SDS011;10658;50.920;12.238;2023-07-29T01:40:28;1.50;;;1.00;;
21000;SDS011;10658;50.920;12.238;2023-07-29T01:44:30;0.70;;;0.70;;
21000;SDS011;10658;50.920;12.238;2023-07-29T01:48:31;0.70;;;0.70;;
21000;SDS011;10658;50.920;12.238;2023-07-29T01:52:32;0.90;;;0.80;;
21000;SDS011;10658;50.920;12.238;2023-07-29T01:56:33;1.38;;;1.00;;
21000;SDS011;10658;50.920;12.238;2023-07-29T02:00:34;0.60;;;0.60;;
21000;SDS011;10658;50.920;12.238;2023-07-29T02:04:35;1.65;;;0.90;;
21000;SDS011;10658;50.920;12.238;2023-07-29T02:08:36;1.23;;;0.90;;
21000;SDS011;10658;50.920;12.238;2023-07-29T02:12:37;2.60;;;0.82;;
21000;SDS011;10658;50.920;12.238;2023-07-29T02:16:38;1.40;;;1.20;;
21000;SDS011;10658;50.920;12.238;2023-07-29T02:20:39;1.20;;;1.08;;
21000;SDS011;10658;50.920;12.238;2023-07-29T02:24:40;1.27;;;1.15;;
21000;SDS011;10658;50.920;12.238;2023-07-29T02:28:41;1.40;;;1.20;;
21000;SDS011;10658;50.920;12.238;2023-07-29T02:32:42;2.40;;;1.40;;
21000;SDS011;10658;50.920;12.238;2023-07-29T02:36:43;2.97;;;0.95;;
21000;SDS011;10658;50.920;12.238;2023-07-29T02:40:44;4.13;;;1.08;;
21000;SDS011;10658;50.920;12.238;2023-07-29T02:44:45;1.25;;;1.08;;
21000;SDS011;10658;50.920;12.238;2023-07-29T02:48:45;1.70;;;0.93;;
21000;SDS011;10658;50.920;12.238;2023-07-29T02:52:46;1.45;;;1.10;;
21000;SDS011;10658;50.920;12.238;2023-07-29T02:56:47;1.10;;;0.90;;
21000;SDS011;10658;50.920;12.238;2023-07-29T03:00:50;0.80;;;0.80;;
21000;SDS011;10658;50.920;12.238;2023-07-29T03:04:52;1.20;;;1.05;;
21000;SDS011;10658;50.920;12.238;2023-07-29T03:08:52;1.17;;;1.08;;
21000;SDS011;10658;50.920;12.238;2023-07-29T03:12:53;1.90;;;1.25;;
21000;SDS011;10658;50.920;12.238;2023-07-29T03:16:55;1.42;;;0.88;;
21000;SDS011;10658;50.920;12.238;2023-07-29T03:20:56;1.13;;;1.00;;
21000;SDS011;10658;50.920;12.238;2023-07-29T03:24:56;1.40;;;1.30;;
21000;SDS011;10658;50.920;12.238;2023-07-29T03:28:57;2.28;;;1.63;;
21000;SDS011;10658;50.920;12.238;2023-07-29T03:32:58;2.65;;;1.50;;
21000;SDS011;10658;50.920;12.238;2023-07-29T03:36:59;1.48;;;1.38;;
21000;SDS011;10658;50.920;12.238;2023-07-29T03:41:01;3.50;;;1.60;;
21000;SDS011;10658;50.920;12.238;2023-07-29T03:45:03;2.53;;;1.30;;
21000;SDS011;10658;50.920;12.238;2023-07-29T03:49:04;1.55;;;1.40;;
21000;SDS011;10658;50.920;12.238;2023-07-29T03:53:05;1.17;;;1.13;;
21000;SDS011;10658;50.920;12.238;2023-07-29T03:57:06;1.38;;;1.27;;
21000;SDS011;10658;50.920;12.238;2023-07-29T04:01:07;1.40;;;1.30;;
21000;SDS011;10658;50.920;12.238;2023-07-29T04:05:08;1.77;;;1.55;;
21000;SDS011;10658;50.920;12.238;2023-07-29T04:09:09;1.98;;;1.35;;
21000;SDS011;10658;50.920;12.238;2023-07-29T04:13:10;2.97;;;1.65;;
21000;SDS011;10658;50.920;12.238;2023-07-29T04:17:10;2.03;;;1.92;;
21000;SDS011;10658;50.920;12.238;2023-07-29T04:21:11;5.93;;;2.60;;
21000;SDS011;10658;50.920;12.238;2023-07-29T04:25:12;3.67;;;1.95;;
21000;SDS011;10658;50.920;12.238;2023-07-29T04:29:13;1.88;;;1.75;;
21000;SDS011;10658;50.920;12.238;2023-07-29T04:33:14;3.25;;;2.00;;
21000;SDS011;10658;50.920;12.238;2023-07-29T04:37:15;1.38;;;1.27;;
21000;SDS011;10658;50.920;12.238;2023-07-29T04:41:15;1.75;;;1.65;;
21000;SDS011;10658;50.920;12.238;2023-07-29T04:45:16;1.60;;;1.50;;
21000;SDS011;10658;50.920;12.238;2023-07-29T04:49:17;1.70;;;1.60;;
21000;SDS011;10658;50.920;12.238;2023-07-29T04:53:18;1.48;;;1.38;;
21000;SDS011;10658;50.920;12.238;2023-07-29T04:57:19;1.70;;;1.17;;
21000;SDS011;10658;50.920;12.238;2023-07-29T05:01:19;1.42;;;1.33;;
21000;SDS011;10658;50.920;12.238;2023-07-29T05:05:20;1.42;;;1.33;;
21000;SDS011;10658;50.920;12.238;2023-07-29T05:09:21;2.38;;;1.40;;
21000;SDS011;10658;50.920;12.238;2023-07-29T05:13:22;2.20;;;1.33;;
21000;SDS011;10658;50.920;12.238;2023-07-29T05:17:23;1.30;;;1.20;;
21000;SDS011;10658;50.920;12.238;2023-07-29T05:21:24;1.70;;;1.38;;
21000;SDS011;10658;50.920;12.238;2023-07-29T05:25:25;1.77;;;0.93;;
21000;SDS011;10658;50.920;12.238;2023-07-29T05:29:25;1.02;;;1.00;;
21000;SDS011;10658;50.920;12.238;2023-07-29T05:33:27;1.50;;;1.40;;
21000;SDS011;10658;50.920;12.238;2023-07-29T05:37:27;1.30;;;1.20;;
21000;SDS011;10658;50.920;12.238;2023-07-29T05:41:28;1.50;;;1.30;;
21000;SDS011;10658;50.920;12.238;2023-07-29T05:45:29;1.52;;;1.42;;
21000;SDS011;10658;50.920;12.238;2023-07-29T05:49:31;1.38;;;1.15;;
21000;SDS011;10658;50.920;12.238;2023-07-29T05:53:32;1.33;;;1.20;;
21000;SDS011;10658;50.920;12.238;2023-07-29T05:57:33;1.35;;;1.25;;
21000;SDS011;10658;50.920;12.238;2023-07-29T06:01:33;1.30;;;1.20;;
21000;SDS011;10658;50.920;12.238;2023-07-29T06:05:35;2.90;;;1.67;;
21000;SDS011;10658;50.920;12.238;2023-07-29T06:09:37;1.35;;;1.25;;
21000;SDS011;10658;50.920;12.238;2023-07-29T06:13:37;2.53;;;1.50;;
21000;SDS011;10658;50.920;12.238;2023-07-29T06:17:38;1.25;;;1.20;;
21000;SDS011;10658;50.920;12.238;2023-07-29T06:21:39;1.85;;;1.02;;
21000;SDS011;10658;50.920;12.238;2023-07-29T06:25:40;1.20;;;1.10;;
21000;SDS011;10658;50.920;12.238;2023-07-29T06:29:41;1.23;;;1.13;;
21000;SDS011;10658;50.920;12.238;2023-07-29T06:33:41;1.92;;;1.02;;
21000;SDS011;10658;50.920;12.238;2023-07-29T06:37:43;1.90;;;1.30;;
21000;SDS011;10658;50.920;12.238;2023-07-29T06:41:43;1.25;;;1.08;;
21000;SDS011;10658;50.920;12.238;2023-07-29T06:45:46;1.65;;;1.02;;
21000;SDS011;10658;50.920;12.238;2023-07-29T06:49:47;3.50;;;1.08;;
21000;SDS011;10658;50.920;12.238;2023-07-29T06:53:48;1.25;;;1.15;;
21000;SDS011;10658;50.920;12.238;2023-07-29T06:57:49;1.23;;;0.90;;
21000;SDS011;10658;50.920;12.238;2023-07-29T07:01:50;0.80;;;0.80;;
21000;SDS011;10658;50.920;12.238;2023-07-29T07:05:50;3.30;;;1.52;;
21000;SDS011;10658;50.920;12.238;2023-07-29T07:09:51;1.30;;;1.20;;
21000;SDS011;10658;50.920;12.238;2023-07-29T07:13:52;1.08;;;0.95;;
21000;SDS011;10658;50.920;12.238;2023-07-29T07:17:54;1.15;;;1.02;;
21000;SDS011;10658;50.920;12.238;2023-07-29T07:21:55;1.00;;;1.00;;
21000;SDS011;10658;50.920;12.238;2023-07-29T07:25:56;1.05;;;0.95;;
21000;SDS011;10658;50.920;12.238;2023-07-29T07:29:57;3.35;;;2.08;;
21000;SDS011;10658;50.920;12.238;2023-07-29T07:34:00;1.75;;;0.85;;
21000;SDS011;10658;50.920;12.238;2023-07-29T07:38:04;1.08;;;0.98;;
21000;SDS011;10658;50.920;12.238;2023-07-29T07:42:07;1.58;;;1.25;;
21000;SDS011;10658;50.920;12.238;2023-07-29T07:46:09;1.67;;;1.00;;
21000;SDS011;10658;50.920;12.238;2023-07-29T07:50:10;1.15;;;1.05;;
21000;SDS011;10658;50.920;12.238;2023-07-29T07:54:12;1.50;;;1.20;;
21000;SDS011;10658;50.920;12.238;2023-07-29T07:58:16;2.83;;;1.00;;
21000;SDS011;10658;50.920;12.238;2023-07-29T08:02:21;1.10;;;1.05;;
21000;SDS011;10658;50.920;12.238;2023-07-29T08:06:23;0.90;;;0.90;;
21000;SDS011;10658;50.920;12.238;2023-07-29T08:10:25;0.90;;;0.80;;
21000;SDS011;10658;50.920;12.238;2023-07-29T08:14:26;1.08;;;0.80;;
21000;SDS011;10658;50.920;12.238;2023-07-29T08:18:27;0.60;;;0.55;;
21000;SDS011;10658;50.920;12.238;2023-07-29T08:22:29;2.53;;;0.80;;
21000;SDS011;10658;50.920;12.238;2023-07-29T08:26:30;1.80;;;0.85;;
21000;SDS011;10658;50.920;12.238;2023-07-29T08:30:31;1.20;;;0.95;;
21000;SDS011;10658;50.920;12.238;2023-07-29T08:34:33;0.80;;;0.80;;
21000;SDS011;10658;50.920;12.238;2023-07-29T08:38:34;0.70;;;0.70;;
21000;SDS011;10658;50.920;12.238;2023-07-29T08:42:36;1.75;;;0.70;;
21000;SDS011;10658;50.920;12.238;2023-07-29T08:46:41;1.20;;;0.70;;
21000;SDS011;10658;50.920;12.238;2023-07-29T08:50:47;1.20;;;0.85;;
21000;SDS011;10658;50.920;12.238;2023-07-29T08:54:49;1.08;;;0.90;;
21000;SDS011;10658;50.920;12.238;2023-07-29T08:58:54;0.80;;;0.80;;
21000;SDS011;10658;50.920;12.238;2023-07-29T09:02:56;1.08;;;0.70;;
21000;SDS011;10658;50.920;12.238;2023-07-29T09:07:03;0.80;;;0.80;;
21000;SDS011;10658;50.920;12.238;2023-07-29T09:11:07;1.60;;;1.08;;
21000;SDS011;10658;50.920;12.238;2023-07-29T09:15:09;2.33;;;1.00;;
21000;SDS011;10658;50.920;12.238;2023-07-29T09:19:10;1.40;;;0.90;;
21000;SDS011;10658;50.920;12.238;2023-07-29T09:23:15;2.65;;;0.93;;
21000;SDS011;10658;50.920;12.238;2023-07-29T09:27:26;3.00;;;1.30;;
21000;SDS011;10658;50.920;12.238;2023-07-29T09:31:29;1.83;;;1.20;;
21000;SDS011;10658;50.920;12.238;2023-07-29T09:35:32;1.90;;;0.90;;
21000;SDS011;10658;50.920;12.238;2023-07-29T09:39:34;1.13;;;1.02;;
21000;SDS011;10658;50.920;12.238;2023-07-29T09:43:35;0.90;;;0.80;;
21000;SDS011;10658;50.920;12.238;2023-07-29T09:47:37;1.00;;;1.00;;
21000;SDS011;10658;50.920;12.238;2023-07-29T09:51:38;0.68;;;0.60;;
21000;SDS011;10658;50.920;12.238;2023-07-29T09:55:46;1.52;;;0.60;;
21000;SDS011;10658;50.920;12.238;2023-07-29T09:59:55;0.70;;;0.70;;
21000;SDS011;10658;50.920;12.238;2023-07-29T10:03:57;1.02;;;0.90;;
21000;SDS011;10658;50.920;12.238;2023-07-29T10:08:00;1.38;;;0.85;;
21000;SDS011;10658;50.920;12.238;2023-07-29T10:12:03;1.15;;;0.90;;
21000;SDS011;10658;50.920;12.238;2023-07-29T10:16:07;0.82;;;0.80;;
21000;SDS011;10658;50.920;12.238;2023-07-29T10:20:10;1.48;;;1.13;;
21000;SDS011;10658;50.920;12.238;2023-07-29T10:24:15;1.23;;;1.13;;
21000;SDS011;10658;50.920;12.238;2023-07-29T10:28:57;2.25;;;0.85;;
21000;SDS011;10658;50.920;12.238;2023-07-29T10:33:13;1.35;;;1.00;;
21000;SDS011;10658;50.920;12.238;2023-07-29T10:37:15;1.45;;;1.00;;
21000;SDS011;10658;50.920;12.238;2023-07-29T10:41:16;1.10;;;1.00;;
21000;SDS011;10658;50.920;12.238;2023-07-29T10:45:18;0.82;;;0.80;;
21000;SDS011;10658;50.920;12.238;2023-07-29T10:49:23;1.92;;;1.42;;
21000;SDS011;10658;50.920;12.238;2023-07-29T10:53:29;1.83;;;1.30;;
21000;SDS011;10658;50.920;12.238;2023-07-29T10:57:31;1.50;;;1.10;;
21000;SDS011;10658;50.920;12.238;2023-07-29T11:01:33;1.67;;;1.23;;
21000;SDS011;10658;50.920;12.238;2023-07-29T11:05:50;2.53;;;1.20;;
21000;SDS011;10658;50.920;12.238;2023-07-29T11:09:57;1.73;;;1.15;;
21000;SDS011;10658;50.920;12.238;2023-07-29T11:13:59;6.00;;;1.92;;
21000;SDS011;10658;50.920;12.238;2023-07-29T11:18:02;3.55;;;2.08;;
21000;SDS011;10658;50.920;12.238;2023-07-29T11:22:03;1.83;;;1.23;;
21000;SDS011;10658;50.920;12.238;2023-07-29T11:26:04;3.85;;;1.20;;
21000;SDS011;10658;50.920;12.238;2023-07-29T11:30:07;2.28;;;1.13;;
21000;SDS011;10658;50.920;12.238;2023-07-29T11:34:10;1.92;;;1.58;;
21000;SDS011;10658;50.920;12.238;2023-07-29T11:38:16;1.65;;;1.50;;
21000;SDS011;10658;50.920;12.238;2023-07-29T11:42:19;2.65;;;2.00;;
21000;SDS011;10658;50.920;12.238;2023-07-29T11:46:21;1.30;;;1.17;;
21000;SDS011;10658;50.920;12.238;2023-07-29T11:50:23;1.90;;;1.48;;
21000;SDS011;10658;50.920;12.238;2023-07-29T11:54:25;1.92;;;1.27;;
21000;SDS011;10658;50.920;12.238;2023-07-29T11:58:26;1.55;;;1.45;;
21000;SDS011;10658;50.920;12.238;2023-07-29T12:02:27;1.65;;;1.50;;
21000;SDS011;10658;50.920;12.238;2023-07-29T12:06:29;2.47;;;1.17;;
21000;SDS011;10658;50.920;12.238;2023-07-29T12:10:31;1.48;;;1.38;;
21000;SDS011;10658;50.920;12.238;2023-07-29T12:14:33;1.77;;;1.25;;
21000;SDS011;10658;50.920;12.238;2023-07-29T12:18:35;1.30;;;1.20;;
21000;SDS011;10658;50.920;12.238;2023-07-29T12:22:36;1.38;;;1.27;;
21000;SDS011;10658;50.920;12.238;2023-07-29T12:26:38;2.13;;;1.52;;
21000;SDS011;10658;50.920;12.238;2023-07-29T12:30:42;1.42;;;1.25;;
21000;SDS011;10658;50.920;12.238;2023-07-29T12:34:44;4.38;;;2.85;;
21000;SDS011;10658;50.920;12.238;2023-07-29T12:38:45;2.83;;;2.22;;
21000;SDS011;10658;50.920;12.238;2023-07-29T12:42:47;1.55;;;1.45;;
21000;SDS011;10658;50.920;12.238;2023-07-29T12:46:48;2.40;;;1.60;;
21000;SDS011;10658;50.920;12.238;2023-07-29T12:50:50;3.25;;;1.25;;
21000;SDS011;10658;50.920;12.238;2023-07-29T12:54:52;1.13;;;1.02;;
21000;SDS011;10658;50.920;12.238;2023-07-29T12:58:54;1.20;;;1.10;;
21000;SDS011;10658;50.920;12.238;2023-07-29T13:02:55;1.10;;;1.00;;
21000;SDS011;10658;50.920;12.238;2023-07-29T13:06:56;1.38;;;1.15;;
21000;SDS011;10658;50.920;12.238;2023-07-29T13:10:59;1.17;;;1.08;;
21000;SDS011;10658;50.920;12.238;2023-07-29T13:15:01;1.38;;;1.17;;
21000;SDS011;10658;50.920;12.238;2023-07-29T13:19:02;1.27;;;1.17;;
21000;SDS011;10658;50.920;12.238;2023-07-29T13:23:03;1.88;;;1.33;;
21000;SDS011;10658;50.920;12.238;2023-07-29T13:27:04;1.48;;;1.10;;
21000;SDS011;10658;50.920;12.238;2023-07-29T13:31:06;1.02;;;0.93;;
21000;SDS011;10658;50.920;12.238;2023-07-29T13:35:07;2.40;;;1.10;;
21000;SDS011;10658;50.920;12.238;2023-07-29T13:39:08;1.50;;;1.13;;
21000;SDS011;10658;50.920;12.238;2023-07-29T13:43:09;2.08;;;1.52;;
21000;SDS011;10658;50.920;12.238;2023-07-29T13:47:10;1.50;;;1.20;;
21000;SDS011;10658;50.920;12.238;2023-07-29T13:51:11;1.20;;;1.10;;
21000;SDS011;10658;50.920;12.238;2023-07-29T13:55:12;1.25;;;0.95;;
21000;SDS011;10658;50.920;12.238;2023-07-29T13:59:13;3.15;;;1.20;;
21000;SDS011;10658;50.920;12.238;2023-07-29T14:03:15;2.47;;;1.00;;
21000;SDS011;10658;50.920;12.238;2023-07-29T14:07:16;0.90;;;0.85;;
21000;SDS011;10658;50.920;12.238;2023-07-29T14:11:17;4.00;;;1.00;;
21000;SDS011;10658;50.920;12.238;2023-07-29T14:15:18;1.70;;;0.85;;
21000;SDS011;10658;50.920;12.238;2023-07-29T14:19:19;3.08;;;1.40;;
21000;SDS011;10658;50.920;12.238;2023-07-29T14:23:21;1.15;;;0.90;;
21000;SDS011;10658;50.920;12.238;2023-07-29T14:27:22;1.92;;;1.27;;
21000;SDS011;10658;50.920;12.238;2023-07-29T14:31:26;2.72;;;0.90;;
21000;SDS011;10658;50.920;12.238;2023-07-29T14:35:27;1.77;;;1.20;;
21000;SDS011;10658;50.920;12.238;2023-07-29T14:39:28;1.30;;;1.20;;
21000;SDS011;10658;50.920;12.238;2023-07-29T14:43:30;1.25;;;0.98;;
21000;SDS011;10658;50.920;12.238;2023-07-29T14:47:31;2.30;;;1.30;;
21000;SDS011;10658;50.920;12.238;2023-07-29T14:51:35;1.63;;;1.45;;
21000;SDS011;10658;50.920;12.238;2023-07-29T14:55:36;2.17;;;1.50;;
21000;SDS011;10658;50.920;12.238;2023-07-29T14:59:38;3.45;;;1.40;;
21000;SDS011;10658;50.920;12.238;2023-07-29T15:03:39;1.33;;;1.13;;
21000;SDS011;10658;50.920;12.238;2023-07-29T15:07:40;2.95;;;1.30;;
21000;SDS011;10658;50.920;12.238;2023-07-29T15:11:41;1.20;;;1.10;;
21000;SDS011;10658;50.920;12.238;2023-07-29T15:15:43;3.35;;;1.42;;
21000;SDS011;10658;50.920;12.238;2023-07-29T15:19:44;9.18;;;1.83;;
21000;SDS011;10658;50.920;12.238;2023-07-29T15:23:50;8.48;;;2.60;;
21000;SDS011;10658;50.920;12.238;2023-07-29T15:27:51;13.43;;;3.85;;
21000;SDS011;10658;50.920;12.238;2023-07-29T15:31:53;3.95;;;1.80;;
21000;SDS011;10658;50.920;12.238;2023-07-29T15:35:54;4.35;;;1.48;;
21000;SDS011;10658;50.920;12.238;2023-07-29T15:39:55;4.72;;;1.83;;
21000;SDS011;10658;50.920;12.238;2023-07-29T15:43:56;2.97;;;1.73;;
21000;SDS011;10658;50.920;12.238;2023-07-29T15:47:57;2.40;;;1.60;;
21000;SDS011;10658;50.920;12.238;2023-07-29T15:51:59;3.88;;;1.63;;
21000;SDS011;10658;50.920;12.238;2023-07-29T15:56:00;6.53;;;1.95;;
21000;SDS011;10658;50.920;12.238;2023-07-29T16:00:10;4.63;;;1.63;;
21000;SDS011;10658;50.920;12.238;2023-07-29T16:04:12;1.45;;;1.33;;
21000;SDS011;10658;50.920;12.238;2023-07-29T16:08:16;4.90;;;2.08;;
21000;SDS011;10658;50.920;12.238;2023-07-29T16:12:20;2.63;;;1.05;;
21000;SDS011;10658;50.920;12.238;2023-07-29T16:16:27;5.47;;;1.50;;
21000;SDS011;10658;50.920;12.238;2023-07-29T16:20:30;1.85;;;1.30;;
21000;SDS011;10658;50.920;12.238;2023-07-29T16:24:36;1.38;;;0.85;;
21000;SDS011;10658;50.920;12.238;2023-07-29T16:28:40;3.00;;;1.20;;
21000;SDS011;10658;50.920;12.238;2023-07-29T16:32:41;1.02;;;0.93;;
21000;SDS011;10658;50.920;12.238;2023-07-29T16:36:43;1.77;;;1.55;;
21000;SDS011;10658;50.920;12.238;2023-07-29T16:40:44;1.77;;;1.13;;
21000;SDS011;10658;50.920;12.238;2023-07-29T16:44:45;1.40;;;0.90;;
21000;SDS011;10658;50.920;12.238;2023-07-29T16:48:47;1.80;;;1.00;;
21000;SDS011;10658;50.920;12.238;2023-07-29T16:52:48;1.65;;;1.20;;
21000;SDS011;10658;50.920;12.238;2023-07-29T16:56:53;4.45;;;1.45;;
21000;SDS011;10658;50.920;12.238;2023-07-29T17:00:55;1.63;;;1.00;;
21000;SDS011;10658;50.920;12.238;2023-07-29T17:04:56;2.08;;;0.90;;
21000;SDS011;10658;50.920;12.238;2023-07-29T17:08:58;2.47;;;1.05;;
21000;SDS011;10658;50.920;12.238;2023-07-29T17:12:59;4.25;;;1.55;;
21000;SDS011;10658;50.920;12.238;2023-07-29T17:17:00;4.55;;;2.22;;
21000;SDS011;10658;50.920;12.238;2023-07-29T17:21:01;6.90;;;2.80;;
21000;SDS011;10658;50.920;12.238;2023-07-29T17:25:02;2.10;;;1.50;;
21000;SDS011;10658;50.920;12.238;2023-07-29T17:29:04;2.30;;;1.38;;
21000;SDS011;10658;50.920;12.238;2023-07-29T17:33:05;3.95;;;1.85;;
21000;SDS011;10658;50.920;12.238;2023-07-29T17:37:06;5.07;;;1.80;;
21000;SDS011;10658;50.920;12.238;2023-07-29T17:41:07;4.72;;;2.22;;
21000;SDS011;10658;50.920;12.238;2023-07-29T17:45:09;4.47;;;2.80;;
21000;SDS011;10658;50.920;12.238;2023-07-29T17:49:10;7.68;;;2.55;;
21000;SDS011;10658;50.920;12.238;2023-07-29T17:53:11;3.00;;;1.20;;
21000;SDS011;10658;50.920;12.238;2023-07-29T17:57:12;2.30;;;1.58;;
21000;SDS011;10658;50.920;12.238;2023-07-29T18:01:13;1.83;;;1.27;;
21000;SDS011;10658;50.920;12.238;2023-07-29T18:05:15;2.10;;;1.00;;
21000;SDS011;10658;50.920;12.238;2023-07-29T18:09:16;3.33;;;1.10;;
21000;SDS011;10658;50.920;12.238;2023-07-29T18:13:17;2.67;;;1.05;;
21000;SDS011;10658;50.920;12.238;2023-07-29T18:17:20;2.58;;;0.90;;
21000;SDS011;10658;50.920;12.238;2023-07-29T18:21:22;4.43;;;0.88;;
21000;SDS011;10658;50.920;12.238;2023-07-29T18:25:23;2.70;;;1.20;;
21000;SDS011;10658;50.920;12.238;2023-07-29T18:29:24;2.70;;;1.50;;
21000;SDS011;10658;50.920;12.238;2023-07-29T18:33:25;3.00;;;0.98;;
21000;SDS011;10658;50.920;12.238;2023-07-29T18:37:26;4.32;;;2.00;;
21000;SDS011;10658;50.920;12.238;2023-07-29T18:41:28;6.15;;;2.75;;
21000;SDS011;10658;50.920;12.238;2023-07-29T18:45:32;9.68;;;4.32;;
21000;SDS011;10658;50.920;12.238;2023-07-29T18:49:33;3.85;;;2.00;;
21000;SDS011;10658;50.920;12.238;2023-07-29T18:53:34;4.53;;;1.48;;
21000;SDS011;10658;50.920;12.238;2023-07-29T18:57:35;2.10;;;1.10;;
21000;SDS011;10658;50.920;12.238;2023-07-29T19:01:36;4.78;;;1.83;;
21000;SDS011;10658;50.920;12.238;2023-07-29T19:05:37;5.78;;;1.77;;
21000;SDS011;10658;50.920;12.238;2023-07-29T19:09:42;1.77;;;1.20;;
21000;SDS011;10658;50.920;12.238;2023-07-29T19:13:44;6.85;;;1.67;;
21000;SDS011;10658;50.920;12.238;2023-07-29T19:17:45;4.88;;;1.50;;
21000;SDS011;10658;50.920;12.238;2023-07-29T19:21:47;4.78;;;1.63;;
21000;SDS011;10658;50.920;12.238;2023-07-29T19:25:48;1.67;;;1.30;;
21000;SDS011;10658;50.920;12.238;2023-07-29T19:29:51;3.53;;;1.65;;
21000;SDS011;10658;50.920;12.238;2023-07-29T19:33:52;2.78;;;1.23;;
21000;SDS011;10658;50.920;12.238;2023-07-29T19:37:54;19.92;;;2.15;;
21000;SDS011;10658;50.920;12.238;2023-07-29T19:41:55;3.13;;;1.20;;
21000;SDS011;10658;50.920;12.238;2023-07-29T19:45:56;4.30;;;1.55;;
21000;SDS011;10658;50.920;12.238;2023-07-29T19:49:59;3.88;;;1.65;;
21000;SDS011;10658;50.920;12.238;2023-07-29T19:54:00;3.75;;;1.00;;
21000;SDS011;10658;50.920;12.238;2023-07-29T19:58:00;9.13;;;1.58;;
21000;SDS011;10658;50.920;12.238;2023-07-29T20:02:01;8.55;;;1.80;;
21000;SDS011;10658;50.920;12.238;2023-07-29T20:06:02;5.63;;;1.98;;
21000;SDS011;10658;50.920;12.238;2023-07-29T20:10:05;10.27;;;1.77;;
21000;SDS011;10658;50.920;12.238;2023-07-29T20:14:06;5.65;;;1.90;;
21000;SDS011;10658;50.920;12.238;2023-07-29T20:18:07;6.63;;;1.65;;
21000;SDS011;10658;50.920;12.238;2023-07-29T20:22:08;5.40;;;1.70;;
21000;SDS011;10658;50.920;12.238;2023-07-29T20:26:09;4.47;;;1.27;;
21000;SDS011;10658;50.920;12.238;2023-07-29T20:30:10;5.80;;;1.65;;
21000;SDS011;10658;50.920;12.238;2023-07-29T20:34:10;7.30;;;1.67;;
21000;SDS011;10658;50.920;12.238;2023-07-29T20:38:11;4.45;;;1.50;;
21000;SDS011;10658;50.920;12.238;2023-07-29T20:42:12;6.45;;;1.65;;
21000;SDS011;10658;50.920;12.238;2023-07-29T20:46:16;7.50;;;1.90;;
21000;SDS011;10658;50.920;12.238;2023-07-29T20:50:21;5.60;;;2.38;;
21000;SDS011;10658;50.920;12.238;2023-07-29T20:54:23;6.97;;;1.88;;
21000;SDS011;10658;50.920;12.238;2023-07-29T20:58:24;1.88;;;1.52;;
21000;SDS011;10658;50.920;12.238;2023-07-29T21:02:24;4.53;;;1.83;;
21000;SDS011;10658;50.920;12.238;2023-07-29T21:06:25;3.63;;;2.22;;
21000;SDS011;10658;50.920;12.238;2023-07-29T21:10:26;8.70;;;4.95;;
21000;SDS011;10658;50.920;12.238;2023-07-29T21:14:27;6.85;;;2.20;;
21000;SDS011;10658;50.920;12.238;2023-07-29T21:18:28;2.70;;;2.08;;
21000;SDS011;10658;50.920;12.238;2023-07-29T21:22:28;4.00;;;2.00;;
21000;SDS011;10658;50.920;12.238;2023-07-29T21:26:29;4.03;;;1.77;;
21000;SDS011;10658;50.920;12.238;2023-07-29T21:30:30;2.13;;;1.50;;
21000;SDS011;10658;50.920;12.238;2023-07-29T21:34:31;4.28;;;1.95;;
21000;SDS011;10658;50.920;12.238;2023-07-29T21:38:32;2.55;;;1.40;;
21000;SDS011;10658;50.920;12.238;2023-07-29T21:42:33;1.55;;;1.05;;
21000;SDS011;10658;50.920;12.238;2023-07-29T21:46:34;4.57;;;2.03;;
21000;SDS011;10658;50.920;12.238;2023-07-29T21:50:34;2.92;;;1.60;;
21000;SDS011;10658;50.920;12.238;2023-07-29T21:54:35;5.53;;;2.08;;
21000;SDS011;10658;50.920;12.238;2023-07-29T21:58:36;3.42;;;1.70;;
21000;SDS011;10658;50.920;12.238;2023-07-29T22:02:37;7.63;;;3.00;;
21000;SDS011;10658;50.920;12.238;2023-07-29T22:06:37;9.60;;;2.60;;
21000;SDS011;10658;50.920;12.238;2023-07-29T22:10:38;6.38;;;1.92;;
21000;SDS011;10658;50.920;12.238;2023-07-29T22:14:40;5.72;;;2.40;;
21000;SDS011;10658;50.920;12.238;2023-07-29T22:18:42;5.38;;;2.13;;
21000;SDS011;10658;50.920;12.238;2023-07-29T22:22:43;7.55;;;1.90;;
21000;SDS011;10658;50.920;12.238;2023-07-29T22:26:44;6.32;;;2.30;;
21000;SDS011;10658;50.920;12.238;2023-07-29T22:30:45;4.88;;;2.22;;
21000;SDS011;10658;50.920;12.238;2023-07-29T22:34:45;4.47;;;2.08;;
21000;SDS011;10658;50.920;12.238;2023-07-29T22:38:46;6.15;;;2.38;;
21000;SDS011;10658;50.920;12.238;2023-07-29T22:42:47;5.80;;;2.63;;
21000;SDS011;10658;50.920;12.238;2023-07-29T22:46:47;8.15;;;2.90;;
21000;SDS011;10658;50.920;12.238;2023-07-29T22:50:48;6.28;;;2.05;;
21000;SDS011;10658;50.920;12.238;2023-07-29T22:54:49;3.67;;;1.70;;
21000;SDS011;10658;50.920;12.238;2023-07-29T22:58:50;3.95;;;2.13;;
21000;SDS011;10658;50.920;12.238;2023-07-29T23:02:51;3.30;;;2.03;;
21000;SDS011;10658;50.920;12.238;2023-07-29T23:06:52;3.60;;;1.95;;
21000;SDS011;10658;50.920;12.238;2023-07-29T23:10:53;4.65;;;2.03;;
21000;SDS011;10658;50.920;12.238;2023-07-29T23:14:53;4.57;;;2.20;;
21000;SDS011;10658;50.920;12.238;2023-07-29T23:18:54;5.93;;;2.30;;
21000;SDS011;10658;50.920;12.238;2023-07-29T23:22:55;5.68;;;1.98;;
21000;SDS011;10658;50.920;12.238;2023-07-29T23:26:56;7.00;;;2.15;;
21000;SDS011;10658;50.920;12.238;2023-07-29T23:30:56;5.05;;;1.90;;
21000;SDS011;10658;50.920;12.238;2023-07-29T23:34:58;5.20;;;1.80;;
21000;SDS011;10658;50.920;12.238;2023-07-29T23:38:59;4.45;;;1.77;;
21000;SDS011;10658;50.920;12.238;2023-07-29T23:42:59;5.18;;;2.10;;
21000;SDS011;10658;50.920;12.238;2023-07-29T23:47:00;6.22;;;2.00;;
21000;SDS011;10658;50.920;12.238;2023-07-29T23:51:02;6.22;;;2.13;;
21000;SDS011;10658;50.920;12.238;2023-07-29T23:55:03;4.47;;;2.10;;